sensor_id;sensor_type;location;lat;lon;timestamp;pressure;altitude;pressure_sealevel;temperature;humidity
39223;BME280;24936;46.328;11.026;2022-07-15T00:01:49;94432.47;;;18.52;100.00
39223;BME280;24936;46.328;11.026;2022-07-15T00:04:15;94425.34;;;18.55;100.00
39223;BME280;24936;46.328;11.026;2022-07-15T00:06:40;94429.47;;;18.60;100.00
39223;BME280;24936;46.328;11.026;2022-07-15T00:09:06;94432.31;;;18.47;100.00
39223;BME280;24936;46.328;11.026;2022-07-15T00:11:31;94433.88;;;18.17;100.00
39223;BME280;24936;46.328;11.026;2022-07-15T00:13:56;94431.56;;;18.15;100.00
39223;BME280;24936;46.328;11.026;2022-07-15T00:16:22;94433.59;;;18.24;100.00
39223;BME280;24936;46.328;11.026;2022-07-15T00:18:47;94431.25;;;18.13;100.00
39223;BME280;24936;46.328;11.026;2022-07-15T00:21:12;94430.75;;;18.37;100.00
39223;BME280;24936;46.328;11.026;2022-07-15T00:23:38;94437.84;;;18.25;100.00
39223;BME280;24936;46.328;11.026;2022-07-15T00:26:03;94431.69;;;18.12;100.00
39223;BME280;24936;46.328;11.026;2022-07-15T00:28:29;94431.97;;;18.05;100.00
39223;BME280;24936;46.328;11.026;2022-07-15T00:30:54;94434.63;;;17.86;100.00
39223;BME280;24936;46.328;11.026;2022-07-15T00:33:20;94443.72;;;17.70;100.00
39223;BME280;24936;46.328;11.026;2022-07-15T00:35:46;94431.97;;;17.61;100.00
39223;BME280;24936;46.328;11.026;2022-07-15T00:38:11;94429.28;;;17.70;100.00
39223;BME280;24936;46.328;11.026;2022-07-15T00:40:40;94429.75;;;17.68;100.00
39223;BME280;24936;46.328;11.026;2022-07-15T00:43:06;94427.09;;;17.56;100.00
39223;BME280;24936;46.328;11.026;2022-07-15T00:45:31;94433.88;;;17.51;100.00
39223;BME280;24936;46.328;11.026;2022-07-15T00:50:41;94424.47;;;17.52;100.00
39223;BME280;24936;46.328;11.026;2022-07-15T00:53:07;94420.38;;;17.35;100.00
39223;BME280;24936;46.328;11.026;2022-07-15T00:55:38;94420.25;;;17.38;100.00
39223;BME280;24936;46.328;11.026;2022-07-15T00:58:07;94422.19;;;17.28;100.00
39223;BME280;24936;46.328;11.026;2022-07-15T01:00:33;94421.84;;;17.26;100.00
39223;BME280;24936;46.328;11.026;2022-07-15T01:02:59;94420.88;;;17.20;100.00
39223;BME280;24936;46.328;11.026;2022-07-15T01:05:24;94431.63;;;17.15;100.00
39223;BME280;24936;46.328;11.026;2022-07-15T01:07:50;94423.19;;;17.22;100.00
39223;BME280;24936;46.328;11.026;2022-07-15T01:10:17;94426.41;;;17.08;100.00
39223;BME280;24936;46.328;11.026;2022-07-15T01:12:43;94428.47;;;17.03;100.00
39223;BME280;24936;46.328;11.026;2022-07-15T01:15:09;94426.50;;;17.04;100.00
39223;BME280;24936;46.328;11.026;2022-07-15T01:17:35;94420.81;;;17.11;100.00
39223;BME280;24936;46.328;11.026;2022-07-15T01:20:00;94424.41;;;17.08;100.00
39223;BME280;24936;46.328;11.026;2022-07-15T01:22:25;94419.00;;;17.30;100.00
39223;BME280;24936;46.328;11.026;2022-07-15T01:24:52;94416.66;;;17.07;100.00
39223;BME280;24936;46.328;11.026;2022-07-15T01:27:18;94416.28;;;16.95;100.00
39223;BME280;24936;46.328;11.026;2022-07-15T01:29:43;94413.00;;;16.88;100.00
39223;BME280;24936;46.328;11.026;2022-07-15T01:32:09;94417.59;;;16.91;100.00
39223;BME280;24936;46.328;11.026;2022-07-15T01:34:34;94413.78;;;16.88;100.00
39223;BME280;24936;46.328;11.026;2022-07-15T01:37:00;94418.66;;;16.93;100.00
39223;BME280;24936;46.328;11.026;2022-07-15T01:39:25;94416.81;;;16.90;100.00
39223;BME280;24936;46.328;11.026;2022-07-15T01:41:51;94417.59;;;16.91;100.00
39223;BME280;24936;46.328;11.026;2022-07-15T01:44:16;94418.38;;;16.78;100.00
39223;BME280;24936;46.328;11.026;2022-07-15T01:46:41;94416.56;;;16.97;100.00
39223;BME280;24936;46.328;11.026;2022-07-15T01:49:07;94406.75;;;17.00;100.00
39223;BME280;24936;46.328;11.026;2022-07-15T01:51:49;94412.25;;;16.87;100.00
39223;BME280;24936;46.328;11.026;2022-07-15T01:54:16;94420.88;;;16.73;100.00
39223;BME280;24936;46.328;11.026;2022-07-15T01:56:41;94411.91;;;16.60;100.00
39223;BME280;24936;46.328;11.026;2022-07-15T01:59:07;94413.34;;;16.77;100.00
39223;BME280;24936;46.328;11.026;2022-07-15T02:01:32;94411.25;;;16.81;100.00
39223;BME280;24936;46.328;11.026;2022-07-15T02:03:58;94389.94;;;16.89;100.00
39223;BME280;24936;46.328;11.026;2022-07-15T02:06:23;94392.72;;;16.98;100.00
39223;BME280;24936;46.328;11.026;2022-07-15T02:08:49;94398.94;;;16.76;100.00
39223;BME280;24936;46.328;11.026;2022-07-15T02:11:14;94403.84;;;16.69;100.00
39223;BME280;24936;46.328;11.026;2022-07-15T02:13:40;94398.94;;;16.51;100.00
39223;BME280;24936;46.328;11.026;2022-07-15T02:16:06;94402.31;;;16.55;100.00
39223;BME280;24936;46.328;11.026;2022-07-15T02:18:31;94398.09;;;16.41;100.00
39223;BME280;24936;46.328;11.026;2022-07-15T02:20:57;94388.81;;;16.26;100.00
39223;BME280;24936;46.328;11.026;2022-07-15T02:23:22;94392.06;;;16.21;100.00
39223;BME280;24936;46.328;11.026;2022-07-15T02:25:48;94396.91;;;16.29;100.00
39223;BME280;24936;46.328;11.026;2022-07-15T02:28:14;94390.44;;;16.36;100.00
39223;BME280;24936;46.328;11.026;2022-07-15T02:30:41;94390.22;;;16.43;100.00
39223;BME280;24936;46.328;11.026;2022-07-15T02:33:10;94382.81;;;16.18;100.00
39223;BME280;24936;46.328;11.026;2022-07-15T02:35:36;94393.19;;;16.23;100.00
39223;BME280;24936;46.328;11.026;2022-07-15T02:38:03;94399.38;;;16.37;100.00
39223;BME280;24936;46.328;11.026;2022-07-15T02:40:28;94391.56;;;16.26;100.00
39223;BME280;24936;46.328;11.026;2022-07-15T02:42:56;94395.25;;;16.19;100.00
39223;BME280;24936;46.328;11.026;2022-07-15T02:45:23;94393.28;;;16.20;100.00
39223;BME280;24936;46.328;11.026;2022-07-15T02:47:50;94391.44;;;16.04;100.00
39223;BME280;24936;46.328;11.026;2022-07-15T02:53:37;94392.72;;;16.25;100.00
39223;BME280;24936;46.328;11.026;2022-07-15T02:56:04;94403.13;;;16.30;100.00
39223;BME280;24936;46.328;11.026;2022-07-15T02:58:30;94396.00;;;16.20;100.00
39223;BME280;24936;46.328;11.026;2022-07-15T03:00:57;94395.69;;;16.18;100.00
39223;BME280;24936;46.328;11.026;2022-07-15T03:03:23;94406.06;;;16.23;100.00
39223;BME280;24936;46.328;11.026;2022-07-15T03:05:49;94397.53;;;16.21;100.00
39223;BME280;24936;46.328;11.026;2022-07-15T03:08:16;94397.31;;;16.02;100.00
39223;BME280;24936;46.328;11.026;2022-07-15T03:10:42;94395.81;;;16.14;100.00
39223;BME280;24936;46.328;11.026;2022-07-15T03:13:08;94399.94;;;16.06;100.00
39223;BME280;24936;46.328;11.026;2022-07-15T03:15:34;94403.13;;;15.92;100.00
39223;BME280;24936;46.328;11.026;2022-07-15T03:17:59;94403.31;;;15.84;100.00
39223;BME280;24936;46.328;11.026;2022-07-15T03:20:25;94406.69;;;15.76;100.00
39223;BME280;24936;46.328;11.026;2022-07-15T03:22:50;94403.13;;;15.92;100.00
39223;BME280;24936;46.328;11.026;2022-07-15T03:25:16;94404.63;;;15.93;100.00
39223;BME280;24936;46.328;11.026;2022-07-15T03:27:41;94413.03;;;15.86;100.00
39223;BME280;24936;46.328;11.026;2022-07-15T03:30:07;94413.13;;;15.95;100.00
39223;BME280;24936;46.328;11.026;2022-07-15T03:32:32;94409.97;;;15.83;100.00
39223;BME280;24936;46.328;11.026;2022-07-15T03:34:58;94415.41;;;15.71;100.00
39223;BME280;24936;46.328;11.026;2022-07-15T03:37:32;94411.81;;;15.74;100.00
39223;BME280;24936;46.328;11.026;2022-07-15T03:40:02;94407.56;;;15.86;100.00
39223;BME280;24936;46.328;11.026;2022-07-15T03:42:28;94412.47;;;15.91;100.00
39223;BME280;24936;46.328;11.026;2022-07-15T03:44:55;94408.56;;;15.92;100.00
39223;BME280;24936;46.328;11.026;2022-07-15T03:47:20;94414.13;;;15.88;100.00
39223;BME280;24936;46.328;11.026;2022-07-15T03:49:47;94411.94;;;15.96;100.00
39223;BME280;24936;46.328;11.026;2022-07-15T03:52:14;94402.13;;;15.98;100.00
39223;BME280;24936;46.328;11.026;2022-07-15T03:54:40;94411.28;;;15.92;100.00
39223;BME280;24936;46.328;11.026;2022-07-15T03:57:05;94414.22;;;15.84;100.00
39223;BME280;24936;46.328;11.026;2022-07-15T03:59:31;94417.06;;;15.81;100.00
39223;BME280;24936;46.328;11.026;2022-07-15T04:01:56;94413.47;;;15.84;100.00
39223;BME280;24936;46.328;11.026;2022-07-15T04:04:22;94424.03;;;15.82;100.00
39223;BME280;24936;46.328;11.026;2022-07-15T04:06:47;94421.66;;;15.97;100.00
39223;BME280;24936;46.328;11.026;2022-07-15T04:09:13;94416.66;;;15.95;100.00
39223;BME280;24936;46.328;11.026;2022-07-15T04:11:39;94415.28;;;15.74;100.00
39223;BME280;24936;46.328;11.026;2022-07-15T04:14:12;94420.94;;;15.67;100.00
39223;BME280;24936;46.328;11.026;2022-07-15T04:16:37;94418.66;;;15.66;100.00
39223;BME280;24936;46.328;11.026;2022-07-15T04:19:03;94414.81;;;15.63;100.00
39223;BME280;24936;46.328;11.026;2022-07-15T04:21:29;94420.09;;;15.83;100.00
39223;BME280;24936;46.328;11.026;2022-07-15T04:23:55;94424.84;;;15.95;100.00
39223;BME280;24936;46.328;11.026;2022-07-15T04:26:20;94423.28;;;15.81;100.00
39223;BME280;24936;46.328;11.026;2022-07-15T04:28:45;94414.44;;;15.77;100.00
39223;BME280;24936;46.328;11.026;2022-07-15T04:31:12;94421.00;;;15.80;100.00
39223;BME280;24936;46.328;11.026;2022-07-15T04:33:37;94418.69;;;15.78;100.00
39223;BME280;24936;46.328;11.026;2022-07-15T04:36:03;94418.22;;;15.67;100.00
39223;BME280;24936;46.328;11.026;2022-07-15T04:38:28;94419.50;;;15.63;100.00
39223;BME280;24936;46.328;11.026;2022-07-15T04:40:54;94417.03;;;15.68;100.00
39223;BME280;24936;46.328;11.026;2022-07-15T04:43:19;94417.91;;;15.65;100.00
39223;BME280;24936;46.328;11.026;2022-07-15T04:45:45;94416.06;;;15.75;100.00
39223;BME280;24936;46.328;11.026;2022-07-15T04:48:10;94418.56;;;15.69;100.00
39223;BME280;24936;46.328;11.026;2022-07-15T04:50:54;94417.91;;;15.78;100.00
39223;BME280;24936;46.328;11.026;2022-07-15T04:53:21;94413.81;;;15.99;100.00
39223;BME280;24936;46.328;11.026;2022-07-15T04:55:47;94405.75;;;15.95;100.00
39223;BME280;24936;46.328;11.026;2022-07-15T04:58:13;94403.22;;;16.01;100.00
39223;BME280;24936;46.328;11.026;2022-07-15T05:00:45;94421.09;;;16.02;100.00
39223;BME280;24936;46.328;11.026;2022-07-15T05:03:11;94418.59;;;15.95;100.00
39223;BME280;24936;46.328;11.026;2022-07-15T05:05:37;94415.34;;;16.00;100.00
39223;BME280;24936;46.328;11.026;2022-07-15T05:08:03;94419.13;;;16.02;100.00
39223;BME280;24936;46.328;11.026;2022-07-15T05:10:28;94401.59;;;16.16;100.00
39223;BME280;24936;46.328;11.026;2022-07-15T05:12:54;94401.91;;;16.31;100.00
39223;BME280;24936;46.328;11.026;2022-07-15T05:15:19;94399.81;;;16.48;100.00
39223;BME280;24936;46.328;11.026;2022-07-15T05:17:45;94400.88;;;16.63;100.00
39223;BME280;24936;46.328;11.026;2022-07-15T05:20:10;94409.72;;;16.67;100.00
39223;BME280;24936;46.328;11.026;2022-07-15T05:22:36;94397.50;;;16.59;100.00
39223;BME280;24936;46.328;11.026;2022-07-15T05:25:01;94397.19;;;16.57;100.00
39223;BME280;24936;46.328;11.026;2022-07-15T05:27:27;94399.88;;;16.70;100.00
39223;BME280;24936;46.328;11.026;2022-07-15T05:29:52;94409.59;;;16.71;100.00
39223;BME280;24936;46.328;11.026;2022-07-15T05:32:18;94400.34;;;16.81;100.00
39223;BME280;24936;46.328;11.026;2022-07-15T05:34:43;94407.84;;;16.90;100.00
39223;BME280;24936;46.328;11.026;2022-07-15T05:37:08;94402.94;;;16.85;100.00
39223;BME280;24936;46.328;11.026;2022-07-15T05:39:34;94404.81;;;16.88;100.00
39223;BME280;24936;46.328;11.026;2022-07-15T05:41:59;94397.78;;;16.99;100.00
39223;BME280;24936;46.328;11.026;2022-07-15T05:44:25;94395.69;;;17.03;100.00
39223;BME280;24936;46.328;11.026;2022-07-15T05:46:50;94403.53;;;17.14;100.00
39223;BME280;24936;46.328;11.026;2022-07-15T05:49:16;94393.78;;;17.13;100.00
39223;BME280;24936;46.328;11.026;2022-07-15T05:51:41;94390.50;;;17.40;100.00
39223;BME280;24936;46.328;11.026;2022-07-15T05:57:08;94386.53;;;17.85;100.00
39223;BME280;24936;46.328;11.026;2022-07-15T05:59:33;94386.47;;;17.98;100.00
39223;BME280;24936;46.328;11.026;2022-07-15T06:01:59;94394.84;;;18.03;100.00
39223;BME280;24936;46.328;11.026;2022-07-15T06:04:27;94385.53;;;17.92;100.00
39223;BME280;24936;46.328;11.026;2022-07-15T06:06:53;94394.44;;;17.83;100.00
39223;BME280;24936;46.328;11.026;2022-07-15T06:09:19;94398.41;;;17.82;100.00
39223;BME280;24936;46.328;11.026;2022-07-15T06:11:44;94396.84;;;17.81;100.00
39223;BME280;24936;46.328;11.026;2022-07-15T06:14:10;94394.59;;;17.80;100.00
39223;BME280;24936;46.328;11.026;2022-07-15T06:16:35;94392.16;;;17.82;100.00
39223;BME280;24936;46.328;11.026;2022-07-15T06:19:01;94392.59;;;17.80;100.00
39223;BME280;24936;46.328;11.026;2022-07-15T06:21:26;94383.81;;;17.85;100.00
39223;BME280;24936;46.328;11.026;2022-07-15T06:23:52;94389.50;;;18.00;100.00
39223;BME280;24936;46.328;11.026;2022-07-15T06:26:17;94386.97;;;18.06;100.00
39223;BME280;24936;46.328;11.026;2022-07-15T06:28:42;94388.34;;;18.10;100.00
39223;BME280;24936;46.328;11.026;2022-07-15T06:31:08;94381.38;;;18.18;100.00
39223;BME280;24936;46.328;11.026;2022-07-15T06:33:33;94392.75;;;18.48;100.00
39223;BME280;24936;46.328;11.026;2022-07-15T06:35:59;94381.03;;;18.47;100.00
39223;BME280;24936;46.328;11.026;2022-07-15T06:38:24;94383.78;;;18.47;100.00
39223;BME280;24936;46.328;11.026;2022-07-15T06:40:50;94384.38;;;18.51;100.00
39223;BME280;24936;46.328;11.026;2022-07-15T06:43:15;94377.69;;;18.52;100.00
39223;BME280;24936;46.328;11.026;2022-07-15T06:45:41;94378.03;;;18.64;100.00
39223;BME280;24936;46.328;11.026;2022-07-15T06:48:06;94376.72;;;18.78;100.00
39223;BME280;24936;46.328;11.026;2022-07-15T06:50:31;94379.00;;;18.88;100.00
39223;BME280;24936;46.328;11.026;2022-07-15T06:52:57;94378.09;;;18.91;100.00
39223;BME280;24936;46.328;11.026;2022-07-15T06:55:22;94373.97;;;18.96;100.00
39223;BME280;24936;46.328;11.026;2022-07-15T06:57:47;94376.13;;;19.10;100.00
39223;BME280;24936;46.328;11.026;2022-07-15T07:00:13;94362.56;;;19.16;100.00
39223;BME280;24936;46.328;11.026;2022-07-15T07:02:40;94357.53;;;19.23;100.00
39223;BME280;24936;46.328;11.026;2022-07-15T07:05:06;94365.00;;;19.32;100.00
39223;BME280;24936;46.328;11.026;2022-07-15T07:07:32;94355.69;;;19.30;100.00
39223;BME280;24936;46.328;11.026;2022-07-15T07:09:57;94350.50;;;19.41;100.00
39223;BME280;24936;46.328;11.026;2022-07-15T07:12:22;94349.56;;;19.53;100.00
39223;BME280;24936;46.328;11.026;2022-07-15T07:14:48;94348.97;;;19.67;100.00
39223;BME280;24936;46.328;11.026;2022-07-15T07:17:13;94344.97;;;19.78;100.00
39223;BME280;24936;46.328;11.026;2022-07-15T07:19:39;94343.72;;;19.88;100.00
39223;BME280;24936;46.328;11.026;2022-07-15T07:22:04;94338.47;;;19.99;100.00
39223;BME280;24936;46.328;11.026;2022-07-15T07:24:30;94341.06;;;20.03;100.00
39223;BME280;24936;46.328;11.026;2022-07-15T07:26:56;94334.22;;;20.07;100.00
39223;BME280;24936;46.328;11.026;2022-07-15T07:29:21;94341.31;;;20.14;100.00
39223;BME280;24936;46.328;11.026;2022-07-15T07:31:51;94333.75;;;20.33;100.00
39223;BME280;24936;46.328;11.026;2022-07-15T07:34:17;94332.19;;;20.41;100.00
39223;BME280;24936;46.328;11.026;2022-07-15T07:36:43;94328.81;;;20.46;100.00
39223;BME280;24936;46.328;11.026;2022-07-15T07:39:10;94320.19;;;20.62;100.00
39223;BME280;24936;46.328;11.026;2022-07-15T07:41:35;94324.41;;;20.73;100.00
39223;BME280;24936;46.328;11.026;2022-07-15T07:44:01;94321.09;;;20.83;100.00
39223;BME280;24936;46.328;11.026;2022-07-15T07:46:26;94314.72;;;21.01;100.00
39223;BME280;24936;46.328;11.026;2022-07-15T07:48:52;94308.50;;;22.04;100.00
39223;BME280;24936;46.328;11.026;2022-07-15T07:51:17;94300.19;;;23.10;100.00
39223;BME280;24936;46.328;11.026;2022-07-15T07:53:43;94292.81;;;23.53;100.00
39223;BME280;24936;46.328;11.026;2022-07-15T07:56:08;94292.97;;;24.33;100.00
39223;BME280;24936;46.328;11.026;2022-07-15T07:58:34;94283.28;;;25.03;100.00
39223;BME280;24936;46.328;11.026;2022-07-15T08:01:00;94285.63;;;26.73;100.00
39223;BME280;24936;46.328;11.026;2022-07-15T08:03:25;94272.28;;;28.02;100.00
39223;BME280;24936;46.328;11.026;2022-07-15T08:05:54;94270.47;;;28.83;100.00
39223;BME280;24936;46.328;11.026;2022-07-15T08:08:21;94267.16;;;29.66;100.00
39223;BME280;24936;46.328;11.026;2022-07-15T08:10:50;94265.16;;;30.12;100.00
39223;BME280;24936;46.328;11.026;2022-07-15T08:13:17;94258.91;;;30.51;100.00
39223;BME280;24936;46.328;11.026;2022-07-15T08:15:43;94258.03;;;30.70;100.00
39223;BME280;24936;46.328;11.026;2022-07-15T08:18:09;94255.59;;;31.53;100.00
39223;BME280;24936;46.328;11.026;2022-07-15T08:20:34;94252.63;;;31.72;100.00
39223;BME280;24936;46.328;11.026;2022-07-15T08:23:04;94254.88;;;32.16;100.00
39223;BME280;24936;46.328;11.026;2022-07-15T08:25:35;94251.59;;;31.83;100.00
39223;BME280;24936;46.328;11.026;2022-07-15T08:28:06;94246.72;;;31.97;100.00
39223;BME280;24936;46.328;11.026;2022-07-15T08:30:32;94245.97;;;31.96;100.00
39223;BME280;24936;46.328;11.026;2022-07-15T08:32:59;94244.22;;;31.72;100.00
39223;BME280;24936;46.328;11.026;2022-07-15T08:35:25;94240.50;;;31.22;100.00
39223;BME280;24936;46.328;11.026;2022-07-15T08:37:51;94245.72;;;31.73;100.00
39223;BME280;24936;46.328;11.026;2022-07-15T08:40:17;94245.38;;;31.56;100.00
39223;BME280;24936;46.328;11.026;2022-07-15T08:42:43;94237.91;;;31.93;100.00
39223;BME280;24936;46.328;11.026;2022-07-15T08:45:12;94240.72;;;32.63;100.00
39223;BME280;24936;46.328;11.026;2022-07-15T08:47:40;94243.75;;;33.53;100.00
39223;BME280;24936;46.328;11.026;2022-07-15T08:50:09;94240.63;;;33.80;100.00
39223;BME280;24936;46.328;11.026;2022-07-15T08:52:38;94232.97;;;33.95;100.00
39223;BME280;24936;46.328;11.026;2022-07-15T08:55:05;94226.75;;;34.97;93.50
39223;BME280;24936;46.328;11.026;2022-07-15T08:57:31;94226.41;;;35.40;82.54
39223;BME280;24936;46.328;11.026;2022-07-15T08:59:57;94226.09;;;35.69;81.22
39223;BME280;24936;46.328;11.026;2022-07-15T09:02:23;94223.19;;;36.09;83.77
39223;BME280;24936;46.328;11.026;2022-07-15T09:16:03;94210.38;;;37.28;60.18
39223;BME280;24936;46.328;11.026;2022-07-15T09:18:40;94205.44;;;36.67;78.58
39223;BME280;24936;46.328;11.026;2022-07-15T09:21:17;94203.63;;;36.79;89.45
39223;BME280;24936;46.328;11.026;2022-07-15T09:23:44;94208.50;;;37.48;67.36
39223;BME280;24936;46.328;11.026;2022-07-15T09:26:30;94207.25;;;37.24;67.24
39223;BME280;24936;46.328;11.026;2022-07-15T09:28:58;94204.50;;;37.33;62.19
39223;BME280;24936;46.328;11.026;2022-07-15T09:31:28;94199.69;;;37.26;47.36
39223;BME280;24936;46.328;11.026;2022-07-15T09:34:13;94191.91;;;37.89;55.85
39223;BME280;24936;46.328;11.026;2022-07-15T09:36:44;94191.50;;;36.51;61.96
39223;BME280;24936;46.328;11.026;2022-07-15T09:39:11;94187.16;;;37.37;59.56
39223;BME280;24936;46.328;11.026;2022-07-15T09:44:03;94186.56;;;37.66;58.80
39223;BME280;24936;46.328;11.026;2022-07-15T09:49:09;94186.50;;;37.29;69.85
39223;BME280;24936;46.328;11.026;2022-07-15T09:51:54;94179.84;;;38.25;65.90
39223;BME280;24936;46.328;11.026;2022-07-15T09:54:25;94176.97;;;38.06;59.50
39223;BME280;24936;46.328;11.026;2022-07-15T09:56:52;94170.34;;;38.30;63.79
39223;BME280;24936;46.328;11.026;2022-07-15T09:59:18;94164.03;;;38.78;55.22
39223;BME280;24936;46.328;11.026;2022-07-15T10:01:44;94166.13;;;39.07;57.76
39223;BME280;24936;46.328;11.026;2022-07-15T10:04:14;94160.88;;;39.42;48.63
39223;BME280;24936;46.328;11.026;2022-07-15T10:06:41;94162.41;;;39.23;53.83
39223;BME280;24936;46.328;11.026;2022-07-15T10:09:07;94159.28;;;39.80;45.31
39223;BME280;24936;46.328;11.026;2022-07-15T10:11:38;94157.31;;;39.92;45.45
39223;BME280;24936;46.328;11.026;2022-07-15T10:27:55;94137.25;;;38.60;47.36
39223;BME280;24936;46.328;11.026;2022-07-15T10:30:24;94133.34;;;39.42;46.06
39223;BME280;24936;46.328;11.026;2022-07-15T10:35:48;94133.63;;;35.66;69.86
39223;BME280;24936;46.328;11.026;2022-07-15T10:38:30;94127.59;;;37.60;62.29
39223;BME280;24936;46.328;11.026;2022-07-15T10:41:13;94125.78;;;38.58;51.41
39223;BME280;24936;46.328;11.026;2022-07-15T10:46:17;94117.69;;;39.82;38.48
39223;BME280;24936;46.328;11.026;2022-07-15T10:48:47;94117.97;;;39.86;40.33
39223;BME280;24936;46.328;11.026;2022-07-15T10:54:05;94110.31;;;38.59;42.68
39223;BME280;24936;46.328;11.026;2022-07-15T10:56:37;94108.84;;;39.57;40.65
39223;BME280;24936;46.328;11.026;2022-07-15T11:01:38;94091.47;;;40.13;31.42
39223;BME280;24936;46.328;11.026;2022-07-15T11:04:21;94092.63;;;40.19;30.69
39223;BME280;24936;46.328;11.026;2022-07-15T11:12:09;94089.47;;;38.35;33.16
39223;BME280;24936;46.328;11.026;2022-07-15T11:17:38;94074.47;;;39.41;32.01
39223;BME280;24936;46.328;11.026;2022-07-15T11:20:09;94077.75;;;37.82;30.38
39223;BME280;24936;46.328;11.026;2022-07-15T11:22:40;94072.88;;;35.05;43.11
39223;BME280;24936;46.328;11.026;2022-07-15T11:25:16;94067.09;;;34.95;43.52
39223;BME280;24936;46.328;11.026;2022-07-15T11:27:58;94068.94;;;35.33;44.55
39223;BME280;24936;46.328;11.026;2022-07-15T11:30:36;94070.19;;;34.74;43.16
39223;BME280;24936;46.328;11.026;2022-07-15T11:33:04;94063.63;;;36.64;29.27
39223;BME280;24936;46.328;11.026;2022-07-15T11:35:32;94055.00;;;37.70;37.39
39223;BME280;24936;46.328;11.026;2022-07-15T11:38:07;94058.13;;;39.39;27.83
39223;BME280;24936;46.328;11.026;2022-07-15T11:40:32;94058.00;;;39.68;23.94
39223;BME280;24936;46.328;11.026;2022-07-15T11:43:18;94056.31;;;38.64;25.24
39223;BME280;24936;46.328;11.026;2022-07-15T11:46:04;94061.63;;;36.40;28.60
39223;BME280;24936;46.328;11.026;2022-07-15T11:48:39;94045.53;;;35.30;29.73
39223;BME280;24936;46.328;11.026;2022-07-15T11:51:07;94048.84;;;35.11;29.80
39223;BME280;24936;46.328;11.026;2022-07-15T11:53:39;94042.41;;;35.44;32.59
39223;BME280;24936;46.328;11.026;2022-07-15T11:56:06;94040.09;;;33.81;32.43
39223;BME280;24936;46.328;11.026;2022-07-15T12:01:00;94039.53;;;36.80;31.77
39223;BME280;24936;46.328;11.026;2022-07-15T12:03:56;94037.66;;;34.08;30.72
39223;BME280;24936;46.328;11.026;2022-07-15T12:06:23;94032.53;;;35.10;29.20
39223;BME280;24936;46.328;11.026;2022-07-15T12:09:00;94032.94;;;35.56;31.72
39223;BME280;24936;46.328;11.026;2022-07-15T12:11:31;94029.06;;;36.29;32.07
39223;BME280;24936;46.328;11.026;2022-07-15T12:14:06;94027.50;;;36.53;30.44
39223;BME280;24936;46.328;11.026;2022-07-15T12:19:23;94021.78;;;37.98;32.06
39223;BME280;24936;46.328;11.026;2022-07-15T12:21:50;94019.72;;;38.66;29.64
39223;BME280;24936;46.328;11.026;2022-07-15T12:24:21;94009.00;;;38.16;30.64
39223;BME280;24936;46.328;11.026;2022-07-15T12:29:21;94005.31;;;36.05;32.79
39223;BME280;24936;46.328;11.026;2022-07-15T12:31:58;94003.59;;;37.35;33.59
39223;BME280;24936;46.328;11.026;2022-07-15T12:37:12;93994.06;;;37.77;32.91
39223;BME280;24936;46.328;11.026;2022-07-15T12:42:22;93995.63;;;37.41;34.08
39223;BME280;24936;46.328;11.026;2022-07-15T12:45:08;93988.31;;;37.38;31.00
39223;BME280;24936;46.328;11.026;2022-07-15T12:47:35;93990.00;;;37.51;33.30
39223;BME280;24936;46.328;11.026;2022-07-15T12:50:00;93990.41;;;36.74;37.41
39223;BME280;24936;46.328;11.026;2022-07-15T12:52:37;93997.28;;;36.19;36.01
39223;BME280;24936;46.328;11.026;2022-07-15T12:55:20;93989.03;;;35.78;38.67
39223;BME280;24936;46.328;11.026;2022-07-15T12:57:47;93994.34;;;36.44;35.66
39223;BME280;24936;46.328;11.026;2022-07-15T13:00:18;93991.22;;;36.94;39.69
39223;BME280;24936;46.328;11.026;2022-07-15T13:05:19;93989.66;;;36.73;36.97
39223;BME280;24936;46.328;11.026;2022-07-15T13:07:46;93973.72;;;37.22;35.56
39223;BME280;24936;46.328;11.026;2022-07-15T13:10:11;93979.00;;;37.08;39.42
39223;BME280;24936;46.328;11.026;2022-07-15T13:12:38;93981.84;;;36.81;38.36
39223;BME280;24936;46.328;11.026;2022-07-15T13:15:03;93979.69;;;36.28;42.05
39223;BME280;24936;46.328;11.026;2022-07-15T13:17:29;93975.41;;;36.27;38.91
39223;BME280;24936;46.328;11.026;2022-07-15T13:19:54;93978.94;;;36.45;38.31
39223;BME280;24936;46.328;11.026;2022-07-15T13:22:20;93970.72;;;36.56;43.34
39223;BME280;24936;46.328;11.026;2022-07-15T13:24:45;93969.44;;;36.23;36.42
39223;BME280;24936;46.328;11.026;2022-07-15T13:27:10;93967.97;;;36.22;37.21
39223;BME280;24936;46.328;11.026;2022-07-15T13:29:36;93971.09;;;36.08;39.00
39223;BME280;24936;46.328;11.026;2022-07-15T13:32:01;93971.75;;;36.17;40.68
39223;BME280;24936;46.328;11.026;2022-07-15T13:34:26;93962.88;;;35.51;48.06
39223;BME280;24936;46.328;11.026;2022-07-15T13:36:52;93960.16;;;35.95;41.29
39223;BME280;24936;46.328;11.026;2022-07-15T13:39:17;93968.47;;;36.82;41.84
39223;BME280;24936;46.328;11.026;2022-07-15T13:41:43;93963.31;;;36.88;40.25
39223;BME280;24936;46.328;11.026;2022-07-15T13:44:08;93963.34;;;36.61;44.14
39223;BME280;24936;46.328;11.026;2022-07-15T13:46:34;93961.34;;;36.81;35.99
39223;BME280;24936;46.328;11.026;2022-07-15T13:49:00;93970.13;;;35.11;47.02
39223;BME280;24936;46.328;11.026;2022-07-15T13:51:25;93963.75;;;33.97;62.26
39223;BME280;24936;46.328;11.026;2022-07-15T13:53:53;93963.69;;;33.50;61.14
39223;BME280;24936;46.328;11.026;2022-07-15T13:56:19;93954.66;;;34.95;61.26
39223;BME280;24936;46.328;11.026;2022-07-15T13:58:44;93965.41;;;35.14;52.22